Time;durP1;ratioP1;P1;durP2;ratioP2;P2;SDS_P1;SDS_P2;PMS_P1;PMS_P2;Temp;Humidity;BMP_temperature;BMP_pressure;BME280_temperature;BME280_humidity;BME280_pressure;Samples;Min_cycle;Max_cycle;Signal;HPM_P1;HPM_P2
2023/08/24 00:01:57;;;;;;;7.23;5.97;;;;;;;;;;5032092;28;20232;-73
2023/08/24 00:05:02;;;;;;;7.37;6.30;;;;;;;;;;5032729;28;20177;-72
2023/08/24 00:08:06;;;;;;;9.03;6.30;;;;;;;;;;5032704;28;20197;-72
2023/08/24 00:11:14;;;;;;;9.20;5.93;;;;;;;;;;5031724;28;20193;-72
2023/08/24 00:14:18;;;;;;;8.37;6.30;;;;;;;;;;5032580;28;20204;-73
2023/08/24 00:17:24;;;;;;;7.30;5.73;;;;;;;;;;5032960;28;20177;-72
2023/08/24 00:20:27;;;;;;;9.17;6.90;;;;;;;;;;5020787;28;20362;-72
2023/08/24 00:23:31;;;;;;;9.07;6.27;;;;;;;;;;5033028;28;20212;-72
2023/08/24 00:26:36;;;;;;;7.90;6.50;;;;;;;;;;5032837;28;20205;-73
2023/08/24 00:29:40;;;;;;;7.63;6.10;;;;;;;;;;5020659;28;20659;-73
2023/08/24 00:32:44;;;;;;;12.07;6.67;;;;;;;;;;5020554;28;20679;-72
2023/08/24 00:35:49;;;;;;;11.13;6.43;;;;;;;;;;5020292;28;20209;-73
2023/08/24 00:38:53;;;;;;;7.90;6.10;;;;;;;;;;5009280;28;20671;-72
2023/08/24 00:41:57;;;;;;;6.70;6.03;;;;;;;;;;5023100;28;20228;-73
2023/08/24 00:45:02;;;;;;;7.67;5.77;;;;;;;;;;5036004;28;20181;-73
2023/08/24 00:48:07;;;;;;;10.10;6.43;;;;;;;;;;5036290;28;20180;-73
2023/08/24 00:51:11;;;;;;;8.43;6.17;;;;;;;;;;5023559;28;20184;-72
2023/08/24 00:54:17;;;;;;;7.30;6.53;;;;;;;;;;5036020;28;20521;-72
2023/08/24 00:57:22;;;;;;;10.67;7.10;;;;;;;;;;5035928;28;20185;-72
2023/08/24 01:00:26;;;;;;;10.23;6.43;;;;;;;;;;5023553;28;20185;-72
2023/08/24 01:03:30;;;;;;;10.43;6.37;;;;;;;;;;5023625;28;20732;-73
2023/08/24 01:06:34;;;;;;;10.67;6.70;;;;;;;;;;5023567;28;20190;-72
2023/08/24 01:09:39;;;;;;;10.60;6.77;;;;;;;;;;5012587;28;20187;-72
2023/08/24 01:13:07;;;;;;;7.73;6.93;;;;;;;;;;5035299;28;20221;-72
2023/08/24 01:16:18;;;;;;;10.53;7.50;;;;;;;;;;5035558;28;20185;-72
2023/08/24 01:19:35;;;;;;;8.77;7.50;;;;;;;;;;5023538;28;20187;-72
2023/08/24 01:22:51;;;;;;;10.67;6.93;;;;;;;;;;5023012;28;20241;-72
2023/08/24 01:26:07;;;;;;;7.93;6.80;;;;;;;;;;5012114;28;20192;-72
2023/08/24 01:29:11;;;;;;;8.07;6.63;;;;;;;;;;5035203;28;20628;-72
2023/08/24 01:32:15;;;;;;;10.87;6.80;;;;;;;;;;5034069;28;20209;-72
2023/08/24 01:35:19;;;;;;;9.40;6.57;;;;;;;;;;5022778;28;20208;-72
2023/08/24 01:38:24;;;;;;;8.17;6.83;;;;;;;;;;5023057;28;20181;-72
2023/08/24 01:41:38;;;;;;;9.70;6.33;;;;;;;;;;5034964;28;20213;-72
2023/08/24 01:44:47;;;;;;;7.70;6.80;;;;;;;;;;5034748;28;20636;-72
2023/08/24 01:47:52;;;;;;;10.00;6.73;;;;;;;;;;5023112;28;20177;-72
2023/08/24 01:51:01;;;;;;;9.13;6.80;;;;;;;;;;5022428;28;20181;-72
2023/08/24 01:54:05;;;;;;;8.20;6.70;;;;;;;;;;5034996;28;20181;-72
2023/08/24 01:57:10;;;;;;;8.53;6.80;;;;;;;;;;5022680;28;20513;-71
2023/08/24 02:00:15;;;;;;;10.50;7.27;;;;;;;;;;5023126;28;20173;-72
2023/08/24 02:03:19;;;;;;;8.73;7.83;;;;;;;;;;5034520;28;20244;-72
2023/08/24 02:06:23;;;;;;;8.00;7.20;;;;;;;;;;5022175;28;20197;-72
2023/08/24 02:09:27;;;;;;;9.67;7.07;;;;;;;;;;5022435;28;20196;-72
2023/08/24 02:12:32;;;;;;;9.63;6.90;;;;;;;;;;5022253;28;20688;-72
2023/08/24 02:15:39;;;;;;;8.10;7.30;;;;;;;;;;5011029;28;20628;-72
2023/08/24 02:18:43;;;;;;;11.50;7.40;;;;;;;;;;5022185;28;20173;-72
2023/08/24 02:21:46;;;;;;;9.77;7.10;;;;;;;;;;5010891;28;20718;-72
2023/08/24 02:24:51;;;;;;;10.40;7.30;;;;;;;;;;5034583;28;20180;-72
2023/08/24 02:27:55;;;;;;;10.37;7.53;;;;;;;;;;5022119;28;20180;-72
2023/08/24 02:31:03;;;;;;;7.97;7.17;;;;;;;;;;5022079;28;20185;-72
2023/08/24 02:34:07;;;;;;;10.10;7.40;;;;;;;;;;5021960;28;20189;-72
2023/08/24 02:37:11;;;;;;;8.20;7.50;;;;;;;;;;5034321;28;20548;-72
2023/08/24 02:40:16;;;;;;;7.33;6.67;;;;;;;;;;5034028;28;20185;-72
2023/08/24 02:43:20;;;;;;;8.07;6.33;;;;;;;;;;5010200;28;20228;-72
2023/08/24 02:46:24;;;;;;;10.07;6.87;;;;;;;;;;5033667;28;20533;-72
2023/08/24 02:49:28;;;;;;;10.20;7.20;;;;;;;;;;5021956;28;20181;-72
2023/08/24 02:52:32;;;;;;;7.73;7.00;;;;;;;;;;5033720;28;20217;-72
2023/08/24 02:55:36;;;;;;;8.23;6.83;;;;;;;;;;5033508;28;20193;-72
2023/08/24 02:58:40;;;;;;;9.77;6.97;;;;;;;;;;5021308;28;20177;-72
2023/08/24 03:01:44;;;;;;;7.33;6.47;;;;;;;;;;5021225;28;20220;-72
2023/08/24 03:04:48;;;;;;;7.83;7.03;;;;;;;;;;5020815;28;20223;-72
2023/08/24 03:07:55;;;;;;;7.97;6.70;;;;;;;;;;5021725;28;20185;-72
2023/08/24 03:11:00;;;;;;;8.90;7.10;;;;;;;;;;5021972;28;20184;-72
2023/08/24 03:14:04;;;;;;;9.53;6.90;;;;;;;;;;5021586;28;20648;-72
2023/08/24 03:17:08;;;;;;;9.30;6.43;;;;;;;;;;5021345;28;20192;-72
2023/08/24 03:20:13;;;;;;;10.67;6.73;;;;;;;;;;5033115;28;20185;-72
2023/08/24 03:23:18;;;;;;;11.47;6.70;;;;;;;;;;5009724;28;20239;-72
2023/08/24 03:26:23;;;;;;;8.43;6.80;;;;;;;;;;5021287;28;20651;-72
2023/08/24 03:29:27;;;;;;;8.13;6.83;;;;;;;;;;5032398;28;20521;-72
2023/08/24 03:32:31;;;;;;;7.63;6.43;;;;;;;;;;5021093;28;20679;-72
2023/08/24 03:35:36;;;;;;;8.10;5.97;;;;;;;;;;5009782;28;20553;-72
2023/08/24 03:38:40;;;;;;;6.63;5.60;;;;;;;;;;5033338;28;20628;-71
2023/08/24 03:41:44;;;;;;;8.47;6.50;;;;;;;;;;5020937;28;20212;-72
2023/08/24 03:44:49;;;;;;;8.23;5.97;;;;;;;;;;5033188;28;20525;-72
2023/08/24 03:47:53;;;;;;;6.63;5.77;;;;;;;;;;5020828;28;20181;-72
2023/08/24 03:50:58;;;;;;;8.37;6.27;;;;;;;;;;5020900;28;20176;-72
2023/08/24 03:54:03;;;;;;;8.17;6.07;;;;;;;;;;5009704;28;20177;-72
2023/08/24 03:57:06;;;;;;;8.90;5.90;;;;;;;;;;5032300;28;20181;-72
2023/08/24 04:00:11;;;;;;;7.17;6.37;;;;;;;;;;5020960;28;20177;-72
2023/08/24 04:03:19;;;;;;;7.17;6.13;;;;;;;;;;5032759;28;20232;-72
2023/08/24 04:06:23;;;;;;;9.43;6.00;;;;;;;;;;5031918;28;20201;-72
2023/08/24 04:09:27;;;;;;;12.93;7.10;;;;;;;;;;5032711;28;20177;-72
2023/08/24 04:12:32;;;;;;;7.30;6.20;;;;;;;;;;5020853;28;20223;-72
2023/08/24 04:15:39;;;;;;;6.80;5.90;;;;;;;;;;5023212;28;20173;-72
2023/08/24 04:18:45;;;;;;;7.17;6.27;;;;;;;;;;5013418;28;20181;-72
2023/08/24 04:21:49;;;;;;;8.90;6.60;;;;;;;;;;5024227;28;20224;-72
2023/08/24 04:24:53;;;;;;;8.43;6.20;;;;;;;;;;5024408;28;20192;-72
2023/08/24 04:27:57;;;;;;;9.90;6.67;;;;;;;;;;5036315;28;20172;-72
2023/08/24 04:31:01;;;;;;;7.80;6.13;;;;;;;;;;5036434;28;20181;-72
2023/08/24 04:34:05;;;;;;;9.73;6.60;;;;;;;;;;5036253;28;20513;-72
2023/08/24 04:37:10;;;;;;;7.67;6.43;;;;;;;;;;5036550;28;20177;-72
2023/08/24 04:40:14;;;;;;;8.13;6.23;;;;;;;;;;5036541;28;20169;-72
2023/08/24 04:43:19;;;;;;;7.10;6.23;;;;;;;;;;5036119;28;20220;-72
2023/08/24 04:46:23;;;;;;;7.03;6.33;;;;;;;;;;5024196;28;20616;-73
2023/08/24 04:49:28;;;;;;;7.83;6.43;;;;;;;;;;5036082;28;20192;-72
2023/08/24 04:52:32;;;;;;;7.33;6.20;;;;;;;;;;5035828;28;20212;-72
2023/08/24 04:55:36;;;;;;;6.70;6.10;;;;;;;;;;5023885;28;20177;-72
2023/08/24 04:58:52;;;;;;;8.97;5.80;;;;;;;;;;5035642;28;20180;-73
2023/08/24 05:01:56;;;;;;;8.07;5.73;;;;;;;;;;5035937;28;20224;-73
2023/08/24 05:05:00;;;;;;;7.47;5.90;;;;;;;;;;5035617;28;20180;-73
2023/08/24 05:08:06;;;;;;;9.67;6.67;;;;;;;;;;5035505;28;20628;-73
2023/08/24 05:11:18;;;;;;;7.47;6.10;;;;;;;;;;5023145;28;20185;-72
2023/08/24 05:14:22;;;;;;;6.70;6.10;;;;;;;;;;5035323;28;20169;-73
2023/08/24 05:17:28;;;;;;;8.07;7.27;;;;;;;;;;5023141;28;20663;-74
2023/08/24 05:20:32;;;;;;;9.73;6.13;;;;;;;;;;5035270;28;20181;-73
2023/08/24 05:23:36;;;;;;;14.07;6.60;;;;;;;;;;5023465;28;20220;-72
2023/08/24 05:26:40;;;;;;;7.20;6.50;;;;;;;;;;5011155;28;20748;-72
2023/08/24 05:29:44;;;;;;;9.77;6.27;;;;;;;;;;5023282;28;20181;-72
2023/08/24 05:32:48;;;;;;;9.90;6.17;;;;;;;;;;5034938;28;20209;-72
2023/08/24 05:35:53;;;;;;;11.83;6.60;;;;;;;;;;5022626;28;20208;-72
2023/08/24 05:38:57;;;;;;;7.33;6.60;;;;;;;;;;5035154;28;20656;-72
2023/08/24 05:42:00;;;;;;;10.33;6.37;;;;;;;;;;5022628;28;20212;-72
2023/08/24 05:45:05;;;;;;;12.63;6.50;;;;;;;;;;5022835;28;20184;-72
2023/08/24 05:48:10;;;;;;;7.70;6.87;;;;;;;;;;5034734;28;20180;-72
2023/08/24 05:51:14;;;;;;;13.20;6.70;;;;;;;;;;5033769;28;20517;-72
2023/08/24 05:54:18;;;;;;;9.50;7.00;;;;;;;;;;5034652;28;20182;-72
2023/08/24 05:57:22;;;;;;;7.53;6.70;;;;;;;;;;5034766;28;20177;-72
2023/08/24 06:00:26;;;;;;;8.33;7.53;;;;;;;;;;5022342;28;20172;-72
2023/08/24 06:03:30;;;;;;;11.77;7.30;;;;;;;;;;5034607;28;20224;-72
2023/08/24 06:06:35;;;;;;;11.60;7.93;;;;;;;;;;5034447;28;20192;-72
2023/08/24 06:09:39;;;;;;;13.10;7.83;;;;;;;;;;5034283;28;20677;-72
2023/08/24 06:12:44;;;;;;;16.00;7.93;;;;;;;;;;5034346;28;20223;-72
2023/08/24 06:15:47;;;;;;;11.37;8.37;;;;;;;;;;5034061;28;20688;-72
2023/08/24 06:18:51;;;;;;;12.60;8.17;;;;;;;;;;5034011;28;20177;-72
2023/08/24 06:21:56;;;;;;;10.27;8.67;;;;;;;;;;5034145;28;20224;-73
2023/08/24 06:25:00;;;;;;;14.30;8.43;;;;;;;;;;5033942;28;20575;-73
2023/08/24 06:28:04;;;;;;;12.27;8.63;;;;;;;;;;5021760;28;20192;-72
2023/08/24 06:31:09;;;;;;;11.17;8.87;;;;;;;;;;5033110;28;20184;-73
2023/08/24 06:34:13;;;;;;;9.90;7.93;;;;;;;;;;5033953;28;20208;-72
2023/08/24 06:37:17;;;;;;;13.47;8.23;;;;;;;;;;5021920;28;20180;-72
2023/08/24 06:40:21;;;;;;;15.03;8.27;;;;;;;;;;5021878;28;20574;-72
2023/08/24 06:43:25;;;;;;;11.27;8.07;;;;;;;;;;5010169;28;20596;-72
2023/08/24 06:46:30;;;;;;;10.67;7.60;;;;;;;;;;5033921;28;20181;-72
2023/08/24 06:49:34;;;;;;;11.87;8.70;;;;;;;;;;5022006;28;20655;-72
2023/08/24 06:52:38;;;;;;;10.47;7.60;;;;;;;;;;5033944;28;20228;-72
2023/08/24 06:55:42;;;;;;;12.63;7.67;;;;;;;;;;5021631;28;20190;-72
2023/08/24 06:58:47;;;;;;;13.73;7.93;;;;;;;;;;5033984;28;20185;-72
2023/08/24 07:01:52;;;;;;;9.77;7.40;;;;;;;;;;5033573;28;20231;-72
2023/08/24 07:04:57;;;;;;;11.43;6.83;;;;;;;;;;5033372;28;20185;-72
2023/08/24 07:08:02;;;;;;;11.10;5.23;;;;;;;;;;5033607;28;20188;-73
2023/08/24 07:11:06;;;;;;;12.03;6.50;;;;;;;;;;5033850;28;20193;-72
2023/08/24 07:14:11;;;;;;;5.90;3.60;;;;;;;;;;5021294;28;20238;-72
2023/08/24 07:17:15;;;;;;;5.40;3.57;;;;;;;;;;5033477;28;20182;-72
2023/08/24 07:20:19;;;;;;;7.73;3.87;;;;;;;;;;5033376;28;20184;-72
2023/08/24 07:23:23;;;;;;;7.33;3.63;;;;;;;;;;5021394;28;20565;-72
2023/08/24 07:26:29;;;;;;;7.87;3.53;;;;;;;;;;5033452;28;20519;-72
2023/08/24 07:29:34;;;;;;;4.67;3.50;;;;;;;;;;5033164;28;20178;-72
2023/08/24 07:32:38;;;;;;;4.40;3.27;;;;;;;;;;5033043;28;20215;-72
2023/08/24 07:35:42;;;;;;;5.67;3.03;;;;;;;;;;5033127;28;20196;-73
2023/08/24 07:38:47;;;;;;;5.30;3.23;;;;;;;;;;5032960;28;20194;-73
2023/08/24 07:41:51;;;;;;;4.57;3.03;;;;;;;;;;5033419;28;20225;-73
2023/08/24 07:44:55;;;;;;;5.77;3.17;;;;;;;;;;5032917;28;20218;-72
2023/08/24 07:47:59;;;;;;;7.40;2.93;;;;;;;;;;5033462;28;20187;-73
2023/08/24 07:51:04;;;;;;;5.82;3.38;;;;;;;;;;5036327;28;20634;-72
2023/08/24 07:54:08;;;;;;;8.27;2.90;;;;;;;;;;5037191;28;20176;-72
2023/08/24 07:57:12;;;;;;;5.40;3.03;;;;;;;;;;5036883;28;20648;-73
2023/08/24 08:00:16;;;;;;;3.83;2.95;;;;;;;;;;5025364;28;20175;-73
2023/08/24 08:03:20;;;;;;;3.80;2.78;;;;;;;;;;5024461;28;20225;-73
2023/08/24 08:06:25;;;;;;;5.22;3.42;;;;;;;;;;5024425;28;20187;-73
2023/08/24 08:09:29;;;;;;;8.88;3.08;;;;;;;;;;5037117;28;20195;-73
2023/08/24 08:12:33;;;;;;;5.15;3.33;;;;;;;;;;5036643;28;20569;-73
2023/08/24 08:15:38;;;;;;;7.97;2.70;;;;;;;;;;5024600;28;20184;-73
2023/08/24 08:18:42;;;;;;;5.00;2.92;;;;;;;;;;5024829;28;20177;-73
2023/08/24 08:21:47;;;;;;;6.28;2.42;;;;;;;;;;5025004;28;20208;-73
2023/08/24 08:24:53;;;;;;;3.30;2.40;;;;;;;;;;5024502;28;20211;-73
2023/08/24 08:27:58;;;;;;;4.55;2.60;;;;;;;;;;5035964;28;20185;-73
2023/08/24 08:31:03;;;;;;;4.15;2.70;;;;;;;;;;5035524;28;20661;-73
2023/08/24 08:34:07;;;;;;;5.43;2.40;;;;;;;;;;5036165;28;20211;-73
2023/08/24 08:37:11;;;;;;;5.43;2.70;;;;;;;;;;5036701;28;20186;-72
2023/08/24 08:40:17;;;;;;;2.90;2.60;;;;;;;;;;5024131;28;20225;-73
2023/08/24 08:43:22;;;;;;;4.50;2.65;;;;;;;;;;5036109;28;20229;-73
2023/08/24 08:46:27;;;;;;;6.05;2.67;;;;;;;;;;5036304;28;20205;-73
2023/08/24 08:49:32;;;;;;;3.53;2.40;;;;;;;;;;5035929;28;20197;-73
2023/08/24 08:52:36;;;;;;;3.83;2.42;;;;;;;;;;5036146;28;20216;-72
2023/08/24 08:55:41;;;;;;;5.53;2.83;;;;;;;;;;5035883;28;20174;-73
2023/08/24 08:58:46;;;;;;;7.68;3.20;;;;;;;;;;5035519;28;20189;-73
2023/08/24 09:01:51;;;;;;;3.17;2.70;;;;;;;;;;5034686;28;20221;-73
2023/08/24 09:04:56;;;;;;;10.18;2.78;;;;;;;;;;5035853;28;20213;-73
2023/08/24 09:08:02;;;;;;;6.72;2.72;;;;;;;;;;5034550;28;20665;-73
2023/08/24 09:11:08;;;;;;;5.97;2.92;;;;;;;;;;5023354;28;20177;-73
2023/08/24 09:14:12;;;;;;;5.60;2.75;;;;;;;;;;5035327;28;20321;-73
2023/08/24 09:17:23;;;;;;;3.72;2.70;;;;;;;;;;5035275;28;20528;-73
2023/08/24 09:20:29;;;;;;;6.43;2.85;;;;;;;;;;5035091;28;20185;-73
2023/08/24 09:23:33;;;;;;;4.95;2.72;;;;;;;;;;5022749;28;20224;-73
2023/08/24 09:26:42;;;;;;;4.22;2.92;;;;;;;;;;5035198;28;20538;-73
2023/08/24 09:29:51;;;;;;;11.20;3.03;;;;;;;;;;5035200;28;20223;-73
2023/08/24 09:32:55;;;;;;;3.38;2.80;;;;;;;;;;5035156;28;20224;-73
2023/08/24 09:36:03;;;;;;;7.53;3.20;;;;;;;;;;5034877;28;20189;-73
2023/08/24 09:39:08;;;;;;;5.05;2.97;;;;;;;;;;5022585;28;20177;-73
2023/08/24 09:42:13;;;;;;;4.28;2.33;;;;;;;;;;5034740;28;20217;-73
2023/08/24 09:45:17;;;;;;;8.43;2.90;;;;;;;;;;5034060;28;20209;-74
2023/08/24 09:48:22;;;;;;;4.68;2.83;;;;;;;;;;5035218;28;20181;-73
2023/08/24 09:51:27;;;;;;;3.88;3.10;;;;;;;;;;5022301;28;20177;-73
2023/08/24 09:54:31;;;;;;;6.38;2.92;;;;;;;;;;5034925;28;20181;-73
2023/08/24 09:57:39;;;;;;;7.82;3.30;;;;;;;;;;5022764;28;20185;-73
2023/08/24 10:00:46;;;;;;;5.63;2.95;;;;;;;;;;5022675;28;20181;-73
2023/08/24 10:03:57;;;;;;;4.03;2.88;;;;;;;;;;5034610;28;20547;-73
2023/08/24 10:07:11;;;;;;;4.28;2.67;;;;;;;;;;5034598;28;20177;-73
2023/08/24 10:10:16;;;;;;;4.05;2.92;;;;;;;;;;5034666;28;20244;-73
2023/08/24 10:13:31;;;;;;;5.63;2.92;;;;;;;;;;5033796;28;20213;-73
2023/08/24 10:16:36;;;;;;;5.15;2.85;;;;;;;;;;5033503;28;20193;-73
2023/08/24 10:19:42;;;;;;;5.40;3.10;;;;;;;;;;5034490;28;20640;-73
2023/08/24 10:22:47;;;;;;;5.80;2.80;;;;;;;;;;5034182;28;20217;-73
2023/08/24 10:25:52;;;;;;;4.55;3.25;;;;;;;;;;5033904;28;20262;-73
2023/08/24 10:28:57;;;;;;;9.18;3.47;;;;;;;;;;5034353;28;20177;-73
2023/08/24 10:32:03;;;;;;;5.07;3.30;;;;;;;;;;5033854;28;20208;-73
2023/08/24 10:35:08;;;;;;;9.02;3.50;;;;;;;;;;5033862;28;20196;-73
2023/08/24 10:38:26;;;;;;;5.82;3.47;;;;;;;;;;5033847;28;20523;-73
2023/08/24 10:41:45;;;;;;;7.28;3.10;;;;;;;;;;5034294;28;20182;-73
2023/08/24 10:44:50;;;;;;;5.57;3.20;;;;;;;;;;5033715;28;20213;-73
2023/08/24 10:47:54;;;;;;;5.47;3.28;;;;;;;;;;5033691;28;20177;-73
2023/08/24 10:51:19;;;;;;;6.03;3.33;;;;;;;;;;5033943;28;20181;-73
2023/08/24 10:54:32;;;;;;;5.63;3.35;;;;;;;;;;5034131;28;20181;-73
2023/08/24 10:57:38;;;;;;;4.13;3.22;;;;;;;;;;5033537;28;20190;-73
2023/08/24 11:00:48;;;;;;;5.15;3.25;;;;;;;;;;5033543;28;20265;-73
2023/08/24 11:03:56;;;;;;;4.35;3.50;;;;;;;;;;5033614;28;20177;-73
2023/08/24 11:07:02;;;;;;;5.90;3.45;;;;;;;;;;5021700;28;20177;-73
2023/08/24 11:10:13;;;;;;;4.88;3.17;;;;;;;;;;5033375;28;20185;-74
2023/08/24 11:13:22;;;;;;;4.07;2.78;;;;;;;;;;5021264;28;20221;-73
2023/08/24 11:16:43;;;;;;;4.15;3.45;;;;;;;;;;5033573;28;20612;-73
2023/08/24 11:19:52;;;;;;;4.32;3.42;;;;;;;;;;5033429;28;20186;-73
2023/08/24 11:22:56;;;;;;;5.85;3.38;;;;;;;;;;5021213;28;20213;-73
2023/08/24 11:26:00;;;;;;;22.80;5.05;;;;;;;;;;5032892;28;20232;-73
2023/08/24 11:29:05;;;;;;;7.38;3.30;;;;;;;;;;5033568;28;20181;-73
2023/08/24 11:32:10;;;;;;;4.38;2.97;;;;;;;;;;5033869;28;20217;-73
2023/08/24 11:35:15;;;;;;;5.57;3.10;;;;;;;;;;5033190;28;20196;-73
2023/08/24 11:38:19;;;;;;;7.65;2.78;;;;;;;;;;5020994;28;20181;-73
2023/08/24 11:41:23;;;;;;;4.72;2.80;;;;;;;;;;5033167;28;20173;-74
2023/08/24 11:44:29;;;;;;;6.65;2.80;;;;;;;;;;5020939;28;20672;-74
2023/08/24 11:47:32;;;;;;;5.97;3.35;;;;;;;;;;5033331;28;20620;-73
2023/08/24 11:50:37;;;;;;;3.67;3.08;;;;;;;;;;5033231;28;20177;-74
2023/08/24 11:53:43;;;;;;;4.50;2.70;;;;;;;;;;5032963;28;20196;-73
2023/08/24 11:56:47;;;;;;;5.10;3.25;;;;;;;;;;5033203;28;20192;-74
2023/08/24 11:59:51;;;;;;;7.72;3.03;;;;;;;;;;5032721;28;20189;-75
2023/08/24 12:02:57;;;;;;;5.18;2.88;;;;;;;;;;5020660;28;20692;-75
2023/08/24 12:06:04;;;;;;;6.38;2.85;;;;;;;;;;5032574;28;20205;-75
2023/08/24 12:09:09;;;;;;;7.32;3.00;;;;;;;;;;5033394;28;20177;-75
2023/08/24 12:12:14;;;;;;;3.60;2.50;;;;;;;;;;5032820;28;20684;-75
2023/08/24 12:15:22;;;;;;;5.15;2.55;;;;;;;;;;5032570;28;20498;-74
2023/08/24 12:18:26;;;;;;;5.28;2.90;;;;;;;;;;5032834;28;20181;-74
2023/08/24 12:21:30;;;;;;;3.25;2.40;;;;;;;;;;5032572;28;20548;-74
2023/08/24 12:24:34;;;;;;;3.22;2.50;;;;;;;;;;5032584;28;20213;-74
2023/08/24 12:27:39;;;;;;;4.22;2.45;;;;;;;;;;5020754;28;20522;-74
2023/08/24 12:30:53;;;;;;;5.70;3.40;;;;;;;;;;5020876;28;20185;-74
2023/08/24 12:34:10;;;;;;;8.27;2.83;;;;;;;;;;5031989;28;20182;-74
2023/08/24 12:37:15;;;;;;;8.25;2.95;;;;;;;;;;5023726;28;20633;-74
2023/08/24 12:40:19;;;;;;;2.95;2.20;;;;;;;;;;5036778;28;20613;-74
2023/08/24 12:43:23;;;;;;;5.43;2.33;;;;;;;;;;5023823;28;20216;-74
2023/08/24 12:46:27;;;;;;;7.35;2.78;;;;;;;;;;5023908;28;20201;-73
2023/08/24 12:49:31;;;;;;;5.13;2.70;;;;;;;;;;5023676;28;20181;-73
2023/08/24 12:52:35;;;;;;;8.25;2.47;;;;;;;;;;5023945;28;20213;-74
2023/08/24 12:55:40;;;;;;;5.78;2.53;;;;;;;;;;5035862;28;20174;-74
2023/08/24 12:58:44;;;;;;;7.55;3.20;;;;;;;;;;5035017;28;20185;-73
2023/08/24 13:01:48;;;;;;;7.57;2.55;;;;;;;;;;5035472;28;20217;-73
2023/08/24 13:04:52;;;;;;;5.30;2.65;;;;;;;;;;5035701;28;20213;-73
2023/08/24 13:07:56;;;;;;;5.20;2.50;;;;;;;;;;5012526;28;20185;-73
2023/08/24 13:11:00;;;;;;;6.00;2.70;;;;;;;;;;5023999;28;20177;-74
2023/08/24 13:14:04;;;;;;;5.80;2.97;;;;;;;;;;5035879;28;20185;-74
2023/08/24 13:17:08;;;;;;;4.20;2.85;;;;;;;;;;5035875;28;20181;-75
2023/08/24 13:20:13;;;;;;;6.78;2.70;;;;;;;;;;5035165;28;20201;-75
2023/08/24 13:23:16;;;;;;;8.73;2.70;;;;;;;;;;5022960;28;20208;-74
2023/08/24 13:26:23;;;;;;;5.00;3.03;;;;;;;;;;5034266;28;20224;-74
2023/08/24 13:29:27;;;;;;;9.30;3.45;;;;;;;;;;5034983;28;20528;-74
2023/08/24 13:32:31;;;;;;;5.28;2.60;;;;;;;;;;5034572;28;20224;-74
2023/08/24 13:35:35;;;;;;;8.05;2.83;;;;;;;;;;5023034;28;20197;-75
2023/08/24 13:38:39;;;;;;;7.35;2.90;;;;;;;;;;5035225;28;20173;-73
2023/08/24 13:41:44;;;;;;;5.43;2.90;;;;;;;;;;5035424;28;20204;-72
2023/08/24 13:44:49;;;;;;;6.97;3.25;;;;;;;;;;5034757;28;20747;-73
2023/08/24 13:47:53;;;;;;;9.00;3.25;;;;;;;;;;5034329;28;20625;-73
2023/08/24 13:50:58;;;;;;;7.68;3.00;;;;;;;;;;5034719;28;20181;-73
2023/08/24 13:54:02;;;;;;;7.07;3.20;;;;;;;;;;5034888;28;20529;-75
2023/08/24 13:57:06;;;;;;;3.88;2.92;;;;;;;;;;5034811;28;20174;-74
2023/08/24 14:00:11;;;;;;;6.70;3.40;;;;;;;;;;5022578;28;20200;-74
2023/08/24 14:03:18;;;;;;;11.43;3.20;;;;;;;;;;5034464;28;20688;-74
2023/08/24 14:06:22;;;;;;;6.03;3.30;;;;;;;;;;5034115;28;20204;-73
2023/08/24 14:09:26;;;;;;;4.43;2.92;;;;;;;;;;5034676;28;20182;-73
2023/08/24 14:12:31;;;;;;;6.28;3.33;;;;;;;;;;5034707;28;20213;-73
2023/08/24 14:15:35;;;;;;;8.30;3.38;;;;;;;;;;5022241;28;20624;-73
2023/08/24 14:18:39;;;;;;;12.77;3.55;;;;;;;;;;5034640;28;20650;-73
2023/08/24 14:21:43;;;;;;;9.43;3.60;;;;;;;;;;5022189;28;20223;-73
2023/08/24 14:24:48;;;;;;;12.33;3.40;;;;;;;;;;5022241;28;20181;-73
2023/08/24 14:27:52;;;;;;;11.00;3.60;;;;;;;;;;5034340;28;20188;-73
2023/08/24 14:30:55;;;;;;;10.65;3.80;;;;;;;;;;5034504;28;20652;-73
2023/08/24 14:33:59;;;;;;;13.40;4.18;;;;;;;;;;5022247;28;20211;-73
2023/08/24 14:37:03;;;;;;;7.78;3.55;;;;;;;;;;5033949;28;20181;-72
2023/08/24 14:40:08;;;;;;;11.13;3.60;;;;;;;;;;5033952;28;20177;-73
2023/08/24 14:43:12;;;;;;;8.57;3.80;;;;;;;;;;5033759;28;20224;-73
2023/08/24 14:46:16;;;;;;;9.35;3.75;;;;;;;;;;5021875;28;20563;-73
2023/08/24 14:49:20;;;;;;;11.18;3.95;;;;;;;;;;5034038;28;20510;-74
2023/08/24 14:52:24;;;;;;;14.20;3.72;;;;;;;;;;5033852;28;20216;-73
2023/08/24 14:55:28;;;;;;;9.90;4.07;;;;;;;;;;5034141;28;20180;-73
2023/08/24 14:58:33;;;;;;;7.13;3.78;;;;;;;;;;5033034;28;20181;-73
2023/08/24 15:01:36;;;;;;;8.45;3.35;;;;;;;;;;5033599;28;20225;-73
2023/08/24 15:04:40;;;;;;;9.23;4.00;;;;;;;;;;5033919;28;20181;-73
2023/08/24 15:07:53;;;;;;;9.30;4.40;;;;;;;;;;5033434;28;20539;-74
2023/08/24 15:10:59;;;;;;;8.85;3.83;;;;;;;;;;5033687;28;20181;-74
2023/08/24 15:14:03;;;;;;;11.43;3.80;;;;;;;;;;5033438;28;20173;-74
2023/08/24 15:17:07;;;;;;;8.73;4.05;;;;;;;;;;5033299;28;20184;-73
2023/08/24 15:20:13;;;;;;;9.85;3.72;;;;;;;;;;5021455;28;20173;-74
2023/08/24 15:23:25;;;;;;;12.15;4.18;;;;;;;;;;5033350;28;20217;-73
2023/08/24 15:26:30;;;;;;;9.32;3.95;;;;;;;;;;5033160;28;20223;-73
2023/08/24 15:29:34;;;;;;;9.75;4.22;;;;;;;;;;5033593;28;20190;-73
2023/08/24 15:32:38;;;;;;;8.45;3.47;;;;;;;;;;5033342;28;20225;-73
2023/08/24 15:35:43;;;;;;;9.73;3.38;;;;;;;;;;5020846;28;20193;-73
2023/08/24 15:38:47;;;;;;;9.35;3.63;;;;;;;;;;5033113;28;20192;-73
2023/08/24 15:41:51;;;;;;;12.68;4.00;;;;;;;;;;5020604;28;20562;-73
2023/08/24 15:44:59;;;;;;;10.60;3.60;;;;;;;;;;5021046;28;20184;-73
2023/08/24 15:48:03;;;;;;;15.35;4.00;;;;;;;;;;5032508;28;20184;-73
2023/08/24 15:51:10;;;;;;;10.95;3.85;;;;;;;;;;5021115;28;20189;-73
2023/08/24 15:54:14;;;;;;;16.30;3.67;;;;;;;;;;5033381;28;20529;-73
2023/08/24 15:57:19;;;;;;;9.73;3.95;;;;;;;;;;5020915;28;20173;-73
2023/08/24 16:00:26;;;;;;;8.70;3.47;;;;;;;;;;5032087;28;20181;-73
2023/08/24 16:03:33;;;;;;;12.30;4.30;;;;;;;;;;5032617;28;20553;-73
2023/08/24 16:06:41;;;;;;;13.85;4.35;;;;;;;;;;5032554;28;20272;-73
2023/08/24 16:09:45;;;;;;;14.63;4.18;;;;;;;;;;5033501;28;20644;-73
2023/08/24 16:12:52;;;;;;;11.73;3.80;;;;;;;;;;5024229;28;20216;-73
2023/08/24 16:15:59;;;;;;;10.00;3.70;;;;;;;;;;5036789;28;20182;-73
2023/08/24 16:19:03;;;;;;;8.95;4.00;;;;;;;;;;5036912;28;20204;-73
2023/08/24 16:22:07;;;;;;;10.05;3.47;;;;;;;;;;5036626;28;20692;-73
2023/08/24 16:25:12;;;;;;;7.35;3.78;;;;;;;;;;5036833;28;20189;-73
2023/08/24 16:28:16;;;;;;;13.20;3.60;;;;;;;;;;5035928;28;20181;-75
2023/08/24 16:31:20;;;;;;;7.05;3.55;;;;;;;;;;5036113;28;20181;-75
2023/08/24 16:34:24;;;;;;;9.75;3.80;;;;;;;;;;5036207;28;20209;-75
2023/08/24 16:37:28;;;;;;;16.95;4.20;;;;;;;;;;5024233;28;20173;-74
2023/08/24 16:40:35;;;;;;;12.98;3.90;;;;;;;;;;5035686;28;20231;-75
2023/08/24 16:43:39;;;;;;;15.73;4.50;;;;;;;;;;5024333;28;20543;-73
2023/08/24 16:46:46;;;;;;;39.38;5.97;;;;;;;;;;5036176;28;20220;-73
2023/08/24 16:49:50;;;;;;;14.57;4.43;;;;;;;;;;5035661;28;20202;-73
2023/08/24 16:52:54;;;;;;;10.65;4.60;;;;;;;;;;5036138;28;20222;-73
2023/08/24 16:55:58;;;;;;;19.50;4.03;;;;;;;;;;5035651;28;20205;-73
2023/08/24 16:59:02;;;;;;;10.25;4.13;;;;;;;;;;5023634;28;20198;-73
2023/08/24 17:02:06;;;;;;;9.38;3.92;;;;;;;;;;5035556;28;20227;-73
2023/08/24 17:05:11;;;;;;;14.48;4.30;;;;;;;;;;5023794;28;20636;-74
2023/08/24 17:08:15;;;;;;;12.23;3.70;;;;;;;;;;5036330;28;20524;-74
2023/08/24 17:11:23;;;;;;;11.57;3.75;;;;;;;;;;5035859;28;20196;-73
2023/08/24 17:14:27;;;;;;;9.05;3.65;;;;;;;;;;5035571;28;20185;-73
2023/08/24 17:17:32;;;;;;;10.00;3.90;;;;;;;;;;5012076;28;20185;-73
2023/08/24 17:20:36;;;;;;;11.68;3.80;;;;;;;;;;5035350;28;20184;-73
2023/08/24 17:23:40;;;;;;;7.82;3.80;;;;;;;;;;5034499;28;20189;-73
2023/08/24 17:26:44;;;;;;;11.43;3.60;;;;;;;;;;5023391;28;20204;-73
2023/08/24 17:29:49;;;;;;;15.77;4.47;;;;;;;;;;5035294;28;20195;-73
2023/08/24 17:32:52;;;;;;;11.40;3.97;;;;;;;;;;5035201;28;20323;-74
2023/08/24 17:35:59;;;;;;;15.60;4.82;;;;;;;;;;5022592;28;20204;-74
2023/08/24 17:39:05;;;;;;;15.23;4.50;;;;;;;;;;5035209;28;20195;-74
2023/08/24 17:42:13;;;;;;;12.38;4.32;;;;;;;;;;5023526;28;20221;-74
2023/08/24 17:45:21;;;;;;;7.38;3.90;;;;;;;;;;5011327;28;20187;-75
2023/08/24 17:48:26;;;;;;;8.35;3.85;;;;;;;;;;5022766;28;20179;-73
2023/08/24 17:51:33;;;;;;;6.88;3.95;;;;;;;;;;5034924;28;20603;-73
2023/08/24 17:54:37;;;;;;;8.32;3.42;;;;;;;;;;5035168;28;20183;-74
2023/08/24 17:57:41;;;;;;;6.57;4.00;;;;;;;;;;5011475;28;20179;-73
2023/08/24 18:00:45;;;;;;;11.60;4.28;;;;;;;;;;5034490;28;20180;-73
2023/08/24 18:03:49;;;;;;;8.60;4.38;;;;;;;;;;5034972;28;20186;-72
2023/08/24 18:06:53;;;;;;;10.40;4.18;;;;;;;;;;5034276;28;20202;-73
2023/08/24 18:09:57;;;;;;;7.88;4.25;;;;;;;;;;5022553;28;20199;-74
2023/08/24 18:13:02;;;;;;;6.68;3.90;;;;;;;;;;5034258;28;20693;-74
2023/08/24 18:16:06;;;;;;;10.95;3.90;;;;;;;;;;5021962;28;20176;-73
2023/08/24 18:19:11;;;;;;;10.32;4.20;;;;;;;;;;5034082;28;20177;-73
2023/08/24 18:22:17;;;;;;;11.70;4.30;;;;;;;;;;5033802;28;20227;-72
2023/08/24 18:25:27;;;;;;;13.57;4.05;;;;;;;;;;5022147;28;20191;-73